createdAt,value
2023-02-20T00:00:36.935Z,3.03
2023-02-20T00:03:06.892Z,3.35
2023-02-20T00:05:35.004Z,2.90
2023-02-20T00:08:03.115Z,3.72
2023-02-20T00:10:30.845Z,3.10
2023-02-20T00:12:58.669Z,3.13
2023-02-20T00:15:26.548Z,3.22
2023-02-20T00:17:54.286Z,3.28
2023-02-20T00:20:25.408Z,3.30
2023-02-20T00:22:53.743Z,3.08
2023-02-20T00:25:23.043Z,3.20
2023-02-20T00:27:50.912Z,3.10
2023-02-20T00:30:22.311Z,2.75
2023-02-20T00:32:51.442Z,3.40
2023-02-20T00:35:20.101Z,3.55
2023-02-20T00:37:49.690Z,2.88
2023-02-20T00:40:19.003Z,3.75
2023-02-20T00:42:47.119Z,2.83
2023-02-20T00:45:16.870Z,3.15
2023-02-20T00:47:44.673Z,3.78
2023-02-20T00:50:14.737Z,3.10
2023-02-20T00:52:42.527Z,2.90
2023-02-20T00:55:11.732Z,2.97
2023-02-20T00:57:39.448Z,2.97
2023-02-20T01:00:13.184Z,3.35
2023-02-20T01:02:41.378Z,3.65
2023-02-20T01:05:09.258Z,3.42
2023-02-20T01:07:37.021Z,3.03
2023-02-20T01:10:05.092Z,2.80
2023-02-20T01:12:34.231Z,3.35
2023-02-20T01:15:01.997Z,2.95
2023-02-20T01:17:29.764Z,3.20
2023-02-20T01:19:57.454Z,4.57
2023-02-20T01:22:25.220Z,3.22
2023-02-20T01:24:53.102Z,3.20
2023-02-20T01:27:20.878Z,3.33
2023-02-20T01:29:49.989Z,4.15
2023-02-20T01:32:17.805Z,4.15
2023-02-20T01:34:45.578Z,5.43
2023-02-20T01:37:15.386Z,7.97
2023-02-20T01:39:43.435Z,8.70
2023-02-20T01:42:17.699Z,7.97
2023-02-20T01:44:45.573Z,6.13
2023-02-20T01:47:17.849Z,5.32
2023-02-20T01:49:49.029Z,5.40
2023-02-20T01:52:20.165Z,4.43
2023-02-20T01:54:53.611Z,3.70
2023-02-20T01:57:25.583Z,3.13
2023-02-20T01:59:57.957Z,2.97
2023-02-20T02:02:30.313Z,3.38
2023-02-20T02:04:58.167Z,3.08
2023-02-20T02:07:27.184Z,3.00
2023-02-20T02:09:59.748Z,3.42
2023-02-20T02:12:27.709Z,3.05
2023-02-20T02:14:55.492Z,3.03
2023-02-20T02:17:48.049Z,3.13
2023-02-20T02:20:52.795Z,3.38
2023-02-20T02:23:58.647Z,2.92
2023-02-20T02:27:03.640Z,3.47
2023-02-20T02:29:59.873Z,3.13
2023-02-20T02:32:57.881Z,3.05
2023-02-20T02:36:01.880Z,3.00
2023-02-20T02:38:35.550Z,3.67
2023-02-20T02:41:09.048Z,3.03
2023-02-20T02:43:43.924Z,3.30
2023-02-20T02:46:19.982Z,3.28
2023-02-20T02:48:53.599Z,3.63
2023-02-20T02:51:26.756Z,3.80
2023-02-20T02:54:10.968Z,3.83
2023-02-20T02:56:40.874Z,3.38
2023-02-20T02:59:10.743Z,3.30
2023-02-20T03:01:43.560Z,3.83
2023-02-20T03:06:45.789Z,3.15
2023-02-20T03:09:20.944Z,4.68
2023-02-20T03:11:49.989Z,4.10
2023-02-20T03:14:40.496Z,3.90
2023-02-20T03:17:13.925Z,4.00
2023-02-20T03:19:45.036Z,4.30
2023-02-20T03:22:19.030Z,3.67
2023-02-20T03:25:00.575Z,4.45
2023-02-20T03:27:42.853Z,4.43
2023-02-20T03:30:17.004Z,4.10
2023-02-20T03:33:05.398Z,4.60
2023-02-20T03:35:54.297Z,4.43
2023-02-20T03:38:42.686Z,4.07
2023-02-20T03:41:31.992Z,4.32
2023-02-20T03:44:01.620Z,4.55
2023-02-20T03:46:32.645Z,3.90
2023-02-20T03:49:04.817Z,4.55
2023-02-20T03:51:50.480Z,4.18
2023-02-20T03:54:19.874Z,4.60
2023-02-20T03:56:55.737Z,4.65
2023-02-20T03:59:28.196Z,4.30
2023-02-20T04:01:58.989Z,4.60
2023-02-20T04:04:31.974Z,4.97
2023-02-20T04:09:34.171Z,4.18
2023-02-20T04:12:09.184Z,4.55
2023-02-20T04:14:38.198Z,4.55
2023-02-20T04:17:12.932Z,4.53
2023-02-20T04:19:40.901Z,4.90
2023-02-20T04:22:14.652Z,4.88
2023-02-20T04:24:49.139Z,4.75
2023-02-20T04:27:18.576Z,4.82
2023-02-20T04:29:46.319Z,4.43
2023-02-20T04:32:13.988Z,4.80
2023-02-20T04:34:41.826Z,4.93
2023-02-20T04:37:12.171Z,4.38
2023-02-20T04:39:40.028Z,4.50
2023-02-20T04:42:08.137Z,4.40
2023-02-20T04:44:37.400Z,4.30
2023-02-20T04:47:07.422Z,4.55
2023-02-20T04:49:35.724Z,4.80
2023-02-20T04:52:03.576Z,4.55
2023-02-20T04:54:31.329Z,4.55
2023-02-20T04:56:59.215Z,4.78
2023-02-20T04:59:26.923Z,4.90
2023-02-20T05:01:56.823Z,5.10
2023-02-20T05:04:24.605Z,4.65
2023-02-20T05:06:54.597Z,4.60
2023-02-20T05:09:22.826Z,4.43
2023-02-20T05:11:50.911Z,4.38
2023-02-20T05:14:19.461Z,5.07
2023-02-20T05:16:47.473Z,4.30
2023-02-20T05:19:16.606Z,4.93
2023-02-20T05:22:01.616Z,4.22
2023-02-20T05:24:29.818Z,5.38
2023-02-20T05:26:57.783Z,4.68
2023-02-20T05:29:25.747Z,4.45
2023-02-20T05:31:53.653Z,4.50
2023-02-20T05:34:25.566Z,5.38
2023-02-20T05:36:53.384Z,5.45
2023-02-20T05:39:21.228Z,5.05
2023-02-20T05:41:49.355Z,4.28
2023-02-20T05:44:17.290Z,4.97
2023-02-20T05:46:45.197Z,4.45
2023-02-20T05:49:13.666Z,5.10
2023-02-20T05:51:42.791Z,4.78
2023-02-20T05:54:10.824Z,4.80
2023-02-20T05:56:42.697Z,4.75
2023-02-20T05:59:10.539Z,4.68
2023-02-20T06:01:38.436Z,4.28
2023-02-20T06:04:06.797Z,4.40
2023-02-20T06:06:35.145Z,4.50
2023-02-20T06:09:07.515Z,4.20
2023-02-20T06:11:35.347Z,4.50
2023-02-20T06:14:03.379Z,4.72
2023-02-20T06:16:32.093Z,5.25
2023-02-20T06:19:00.967Z,4.15
2023-02-20T06:21:29.410Z,5.18
2023-02-20T06:23:57.167Z,4.68
2023-02-20T06:26:26.286Z,4.75
2023-02-20T06:28:54.477Z,5.20
2023-02-20T06:31:24.006Z,4.82
2023-02-20T06:33:51.877Z,5.50
2023-02-20T06:36:25.450Z,5.05
2023-02-20T06:38:55.245Z,5.05
2023-02-20T06:41:24.433Z,5.25
2023-02-20T06:43:53.574Z,5.38
2023-02-20T06:46:22.743Z,5.35
2023-02-20T06:48:52.467Z,5.85
2023-02-20T06:51:21.888Z,6.55
2023-02-20T06:53:50.012Z,6.70
2023-02-20T06:56:20.174Z,6.60
2023-02-20T06:58:48.560Z,5.95
2023-02-20T07:01:18.053Z,6.03
2023-02-20T07:03:48.736Z,6.20
2023-02-20T07:06:16.852Z,6.43
2023-02-20T07:08:44.824Z,6.80
2023-02-20T07:11:13.492Z,5.30
2023-02-20T07:13:41.777Z,5.78
2023-02-20T07:16:11.049Z,4.95
2023-02-20T07:18:40.242Z,4.78
2023-02-20T07:21:08.276Z,4.53
2023-02-20T07:23:36.163Z,5.63
2023-02-20T07:26:04.386Z,5.20
2023-02-20T07:28:32.231Z,5.38
2023-02-20T07:31:00.006Z,5.60
2023-02-20T07:33:27.780Z,5.72
2023-02-20T07:35:57.068Z,5.35
2023-02-20T07:38:24.946Z,6.07
2023-02-20T07:40:52.895Z,5.50
2023-02-20T07:43:20.848Z,5.60
2023-02-20T07:45:48.820Z,5.95
2023-02-20T07:48:16.661Z,4.90
2023-02-20T07:50:44.514Z,5.35
2023-02-20T07:53:17.679Z,6.10
2023-02-20T07:55:45.513Z,5.20
2023-02-20T07:58:13.777Z,5.47
2023-02-20T08:00:41.592Z,5.50
2023-02-20T08:03:09.388Z,5.75
2023-02-20T08:05:48.698Z,5.88
2023-02-20T08:08:18.981Z,4.97
2023-02-20T08:10:47.903Z,5.28
2023-02-20T08:13:15.809Z,5.93
2023-02-20T08:15:44.808Z,6.03
2023-02-20T08:18:23.118Z,5.55
2023-02-20T08:20:52.802Z,5.45
2023-02-20T08:23:24.401Z,5.40
2023-02-20T08:25:52.828Z,5.50
2023-02-20T08:28:21.549Z,5.28
2023-02-20T08:30:49.485Z,6.50
2023-02-20T08:33:17.383Z,6.28
2023-02-20T08:35:45.556Z,5.55
2023-02-20T08:38:30.047Z,5.45
2023-02-20T08:40:57.908Z,5.45
2023-02-20T08:43:27.967Z,5.93
2023-02-20T08:45:56.582Z,5.70
2023-02-20T08:48:24.498Z,6.70
2023-02-20T08:50:52.391Z,5.55
2023-02-20T08:53:20.540Z,5.32
2023-02-20T08:55:49.971Z,5.78
2023-02-20T08:58:20.841Z,5.53
2023-02-20T09:00:48.739Z,5.60
2023-02-20T09:03:16.770Z,6.00
2023-02-20T09:05:45.203Z,6.47
2023-02-20T09:08:13.031Z,8.18
2023-02-20T09:10:41.162Z,6.65
2023-02-20T09:13:10.421Z,5.72
2023-02-20T09:15:40.047Z,5.70
2023-02-20T09:18:09.886Z,6.07
2023-02-20T09:20:38.607Z,7.65
2023-02-20T09:23:07.788Z,6.15
2023-02-20T09:25:36.568Z,5.18
2023-02-20T09:28:04.754Z,5.55
2023-02-20T09:30:34.009Z,6.07
2023-02-20T09:33:01.832Z,6.10
2023-02-20T09:35:31.437Z,5.50
2023-02-20T09:37:59.251Z,5.50
2023-02-20T09:40:29.193Z,5.20
2023-02-20T09:43:15.338Z,5.47
2023-02-20T09:45:52.279Z,5.60
2023-02-20T09:48:32.699Z,5.28
2023-02-20T09:51:04.641Z,5.53
2023-02-20T09:53:36.404Z,5.17
2023-02-20T09:56:07.527Z,5.05
2023-02-20T09:58:44.554Z,5.45
2023-02-20T10:01:16.892Z,5.15
2023-02-20T10:03:55.018Z,5.07
2023-02-20T10:06:26.254Z,5.57
2023-02-20T10:08:54.616Z,5.28
2023-02-20T10:11:37.971Z,5.25
2023-02-20T10:14:22.750Z,5.45
2023-02-20T10:16:59.012Z,5.93
2023-02-20T10:19:37.253Z,5.25
2023-02-20T10:22:14.172Z,5.30
2023-02-20T10:24:54.296Z,5.90
2023-02-20T10:27:32.680Z,5.13
2023-02-20T10:30:03.149Z,4.38
2023-02-20T10:32:41.470Z,4.68
2023-02-20T10:35:13.263Z,4.70
2023-02-20T10:37:48.298Z,4.90
2023-02-20T10:40:22.065Z,4.93
2023-02-20T10:42:56.457Z,4.38
2023-02-20T10:45:31.403Z,4.47
2023-02-20T10:48:06.011Z,4.18
2023-02-20T10:50:39.021Z,4.13
2023-02-20T10:53:17.753Z,4.00
2023-02-20T10:55:50.664Z,3.75
2023-02-20T10:58:22.942Z,3.65
2023-02-20T11:00:55.128Z,3.63
2023-02-20T11:03:29.130Z,3.60
2023-02-20T11:06:02.132Z,3.67
2023-02-20T11:08:29.976Z,3.30
2023-02-20T11:11:07.017Z,3.60
2023-02-20T11:13:34.856Z,3.63
2023-02-20T11:16:03.180Z,3.38
2023-02-20T11:18:36.930Z,3.17
2023-02-20T11:21:05.367Z,3.13
2023-02-20T11:23:42.143Z,3.30
2023-02-20T11:26:31.872Z,3.50
2023-02-20T11:29:04.682Z,3.10
2023-02-20T11:31:32.841Z,3.53
2023-02-20T11:34:03.401Z,3.60
2023-02-20T11:36:38.950Z,3.50
2023-02-20T11:39:20.432Z,3.00
2023-02-20T11:41:51.419Z,3.40
2023-02-20T11:44:27.110Z,3.08
2023-02-20T11:47:28.666Z,3.33
2023-02-20T11:50:19.915Z,3.42
2023-02-20T11:53:00.645Z,3.00
2023-02-20T11:55:29.615Z,3.00
2023-02-20T11:57:57.893Z,3.20
2023-02-20T12:00:28.361Z,3.53
2023-02-20T12:02:58.040Z,3.20
2023-02-20T12:05:40.463Z,3.50
2023-02-20T12:08:33.170Z,3.40
2023-02-20T12:11:04.922Z,2.75
2023-02-20T12:13:39.285Z,2.93
2023-02-20T12:16:23.950Z,3.35
2023-02-20T12:18:57.688Z,3.42
2023-02-20T12:21:38.504Z,3.30
2023-02-20T12:24:15.184Z,3.40
2023-02-20T12:26:54.215Z,3.65
2023-02-20T12:29:42.929Z,3.28
2023-02-20T12:32:29.194Z,3.15
2023-02-20T12:35:17.604Z,3.05
2023-02-20T12:37:56.076Z,3.40
2023-02-20T12:40:38.704Z,3.20
2023-02-20T12:43:20.018Z,3.20
2023-02-20T12:45:54.013Z,3.20
2023-02-20T12:48:34.801Z,3.10
2023-02-20T12:51:13.195Z,3.15
2023-02-20T12:53:54.983Z,2.97
2023-02-20T12:56:36.925Z,3.10
2023-02-20T12:59:16.442Z,3.10
2023-02-20T13:01:45.578Z,3.10
2023-02-20T13:04:24.422Z,3.20
2023-02-20T13:06:58.811Z,3.20
2023-02-20T13:09:33.963Z,3.10
2023-02-20T13:12:06.150Z,3.47
2023-02-20T13:14:44.235Z,3.67
2023-02-20T13:17:26.016Z,3.20
2023-02-20T13:19:59.546Z,3.70
2023-02-20T13:22:27.780Z,3.60
2023-02-20T13:25:32.152Z,3.40
2023-02-20T13:28:04.997Z,3.40
2023-02-20T13:30:34.216Z,3.58
2023-02-20T13:33:14.101Z,3.40
2023-02-20T13:35:53.486Z,3.28
2023-02-20T13:38:22.970Z,3.17
2023-02-20T13:41:07.659Z,3.38
2023-02-20T13:43:36.239Z,3.03
2023-02-20T13:46:20.262Z,3.28
2023-02-20T13:48:50.009Z,3.50
2023-02-20T13:51:32.312Z,3.42
2023-02-20T13:54:19.769Z,3.40
2023-02-20T13:56:56.089Z,3.28
2023-02-20T13:59:24.131Z,3.03
2023-02-20T14:01:59.946Z,3.58
2023-02-20T14:04:28.268Z,3.38
2023-02-20T14:06:58.789Z,3.20
2023-02-20T14:09:31.803Z,3.20
2023-02-20T14:12:14.737Z,3.65
2023-02-20T14:14:45.481Z,3.33
2023-02-20T14:17:16.907Z,3.70
2023-02-20T14:19:48.398Z,3.38
2023-02-20T14:22:26.080Z,3.60
2023-02-20T14:25:30.413Z,3.30
2023-02-20T14:28:13.763Z,3.22
2023-02-20T14:30:41.830Z,3.85
2023-02-20T14:33:28.754Z,3.65
2023-02-20T14:36:19.208Z,3.33
2023-02-20T14:39:04.678Z,3.70
2023-02-20T14:41:32.972Z,3.50
2023-02-20T14:44:04.104Z,3.65
2023-02-20T14:46:34.217Z,3.45
2023-02-20T14:49:07.718Z,3.50
2023-02-20T14:51:35.615Z,3.53
2023-02-20T14:54:11.783Z,3.00
2023-02-20T14:56:39.743Z,3.13
2023-02-20T14:59:26.083Z,3.15
2023-02-20T15:01:58.001Z,3.20
2023-02-20T15:04:27.761Z,3.45
2023-02-20T15:07:03.826Z,3.22
2023-02-20T15:09:40.176Z,3.10
2023-02-20T15:12:09.662Z,3.08
2023-02-20T15:14:44.320Z,3.08
2023-02-20T15:17:22.976Z,2.97
2023-02-20T15:19:52.275Z,2.85
2023-02-20T15:22:30.029Z,2.80
2023-02-20T15:25:14.221Z,2.97
2023-02-20T15:27:42.272Z,2.80
2023-02-20T15:30:16.423Z,2.63
2023-02-20T15:32:51.967Z,2.80
2023-02-20T15:35:23.693Z,2.67
2023-02-20T15:37:55.063Z,3.23
2023-02-20T15:40:26.144Z,2.85
2023-02-20T15:42:57.719Z,3.17
2023-02-20T15:45:28.915Z,2.78
2023-02-20T15:47:57.154Z,3.15
2023-02-20T15:50:26.820Z,2.55
2023-02-20T15:52:55.959Z,3.00
2023-02-20T15:55:25.058Z,2.80
2023-02-20T15:57:56.984Z,3.10
2023-02-20T16:00:28.729Z,3.05
2023-02-20T16:02:56.500Z,2.85
2023-02-20T16:05:24.399Z,2.72
2023-02-20T16:07:52.608Z,2.88
2023-02-20T16:10:22.716Z,3.25
2023-02-20T16:12:54.812Z,3.15
2023-02-20T16:15:25.407Z,3.15
2023-02-20T16:17:55.627Z,3.10
2023-02-20T16:20:25.699Z,3.10
2023-02-20T16:22:53.751Z,3.20
2023-02-20T16:25:24.015Z,3.38
2023-02-20T16:27:53.561Z,3.25
2023-02-20T16:30:33.366Z,2.97
2023-02-20T16:33:03.413Z,2.80
2023-02-20T16:35:31.352Z,3.40
2023-02-20T16:37:59.195Z,3.10
2023-02-20T16:40:26.943Z,3.10
2023-02-20T16:42:55.007Z,2.90
2023-02-20T16:45:22.927Z,3.30
2023-02-20T16:47:52.869Z,3.42
2023-02-20T16:50:25.989Z,3.03
2023-02-20T16:52:55.871Z,3.85
2023-02-20T16:55:25.895Z,3.25
2023-02-20T16:57:53.719Z,2.80
2023-02-20T17:00:25.193Z,3.65
2023-02-20T17:02:53.673Z,3.40
2023-02-20T17:05:25.202Z,3.38
2023-02-20T17:07:52.912Z,3.60
2023-02-20T17:10:20.681Z,2.92
2023-02-20T17:12:48.553Z,3.50
2023-02-20T17:15:18.986Z,4.18
2023-02-20T17:17:47.357Z,3.90
2023-02-20T17:20:17.832Z,3.60
2023-02-20T17:22:55.666Z,4.53
2023-02-20T17:25:30.886Z,3.50
2023-02-20T17:27:58.731Z,3.67
2023-02-20T17:30:26.764Z,4.00
2023-02-20T17:32:54.749Z,3.88
2023-02-20T17:35:22.592Z,4.80
2023-02-20T17:37:51.753Z,4.70
2023-02-20T17:40:19.868Z,4.82
2023-02-20T17:42:47.647Z,4.70
2023-02-20T17:45:15.963Z,5.50
2023-02-20T17:47:44.632Z,3.90
2023-02-20T17:50:13.287Z,4.60
2023-02-20T17:52:41.123Z,3.83
2023-02-20T17:55:18.357Z,5.18
2023-02-20T17:57:46.128Z,4.80
2023-02-20T18:00:15.275Z,4.35
2023-02-20T18:02:43.121Z,4.25
2023-02-20T18:05:11.051Z,4.65
2023-02-20T18:07:38.977Z,5.32
2023-02-20T18:10:07.179Z,4.85
2023-02-20T18:12:36.635Z,5.18
2023-02-20T18:15:04.653Z,4.18
2023-02-20T18:17:33.856Z,4.50
2023-02-20T18:20:01.621Z,4.45
2023-02-20T18:22:29.426Z,4.60
2023-02-20T18:24:57.182Z,5.30
2023-02-20T18:27:25.296Z,4.50
2023-02-20T18:29:54.532Z,3.67
2023-02-20T18:32:22.354Z,4.50
2023-02-20T18:34:50.144Z,3.85
2023-02-20T18:37:17.974Z,4.57
2023-02-20T18:39:45.866Z,4.15
2023-02-20T18:42:13.716Z,3.47
2023-02-20T18:44:41.486Z,4.18
2023-02-20T18:47:10.694Z,4.18
2023-02-20T18:49:38.453Z,3.70
2023-02-20T18:52:06.231Z,3.80
2023-02-20T18:54:34.084Z,4.43
2023-02-20T18:57:03.839Z,3.67
2023-02-20T18:59:31.956Z,3.88
2023-02-20T19:02:03.152Z,3.65
2023-02-20T19:04:33.543Z,3.90
2023-02-20T19:07:03.506Z,3.88
2023-02-20T19:09:34.426Z,3.20
2023-02-20T19:12:03.685Z,3.42
2023-02-20T19:14:31.484Z,4.43
2023-02-20T19:17:01.519Z,5.25
2023-02-20T19:19:30.781Z,6.45
2023-02-20T19:22:00.944Z,7.50
2023-02-20T19:24:28.764Z,7.50
2023-02-20T19:26:56.558Z,6.75
2023-02-20T19:29:24.356Z,5.68
2023-02-20T19:31:52.152Z,7.20
2023-02-20T19:34:20.102Z,5.40
2023-02-20T19:36:48.038Z,5.30
2023-02-20T19:39:17.589Z,5.30
2023-02-20T19:41:50.347Z,4.88
2023-02-20T19:46:46.134Z,4.40
2023-02-20T19:49:14.135Z,4.45
2023-02-20T19:51:47.400Z,5.10
2023-02-20T19:54:18.937Z,4.55
2023-02-20T19:56:48.320Z,4.50
2023-02-20T19:59:16.398Z,4.07
2023-02-20T20:01:49.181Z,3.50
2023-02-20T20:06:45.292Z,4.63
2023-02-20T20:09:18.599Z,5.40
2023-02-20T20:11:53.085Z,4.57
2023-02-20T20:14:21.397Z,4.00
2023-02-20T20:16:49.581Z,4.50
2023-02-20T20:19:18.465Z,8.30
2023-02-20T20:21:46.447Z,5.28
2023-02-20T20:24:14.184Z,4.82
2023-02-20T20:26:42.032Z,4.88
2023-02-20T20:29:13.713Z,5.30
2023-02-20T20:31:42.559Z,5.68
2023-02-20T20:34:10.852Z,5.53
2023-02-20T20:36:38.570Z,4.78
2023-02-20T20:39:06.493Z,4.10
2023-02-20T20:41:44.206Z,4.43
2023-02-20T20:44:14.410Z,4.22
2023-02-20T20:46:42.182Z,4.25
2023-02-20T20:49:12.239Z,4.72
2023-02-20T20:51:39.974Z,4.10
2023-02-20T20:54:07.758Z,4.28
2023-02-20T20:56:35.602Z,3.97
2023-02-20T20:59:03.319Z,5.13
2023-02-20T21:01:32.518Z,4.80
2023-02-20T21:04:00.290Z,3.90
2023-02-20T21:06:28.024Z,4.18
2023-02-20T21:08:56.231Z,4.40
2023-02-20T21:11:24.021Z,3.55
2023-02-20T21:13:51.898Z,3.33
2023-02-20T21:16:19.806Z,4.07
2023-02-20T21:18:49.969Z,3.58
2023-02-20T21:21:17.811Z,2.80
2023-02-20T21:23:45.938Z,3.00
2023-02-20T21:26:14.354Z,3.03
2023-02-20T21:28:42.313Z,3.97
2023-02-20T21:31:10.292Z,4.00
2023-02-20T21:33:38.174Z,4.50
2023-02-20T21:36:08.183Z,5.70
2023-02-20T21:38:36.326Z,5.40
2023-02-20T21:41:04.972Z,4.00
2023-02-20T21:43:50.157Z,4.30
2023-02-20T21:46:19.870Z,3.88
2023-02-20T21:48:47.747Z,3.45
2023-02-20T21:51:20.627Z,4.05
2023-02-20T21:56:15.984Z,3.03
2023-02-20T21:59:01.327Z,3.30
2023-02-20T22:01:28.401Z,4.05
2023-02-20T22:03:55.063Z,3.55
2023-02-20T22:06:23.669Z,3.45
2023-02-20T22:09:09.040Z,3.47
2023-02-20T22:11:54.570Z,3.33
2023-02-20T22:14:40.183Z,3.70
2023-02-20T22:17:26.451Z,3.13
2023-02-20T22:20:14.534Z,3.78
2023-02-20T22:23:02.011Z,3.10
2023-02-20T22:25:47.704Z,3.30
2023-02-20T22:28:34.557Z,3.42
2023-02-20T22:31:21.146Z,4.10
2023-02-20T22:34:06.751Z,4.25
2023-02-20T22:36:52.681Z,3.70
2023-02-20T22:39:39.638Z,3.38
2023-02-20T22:42:34.312Z,4.03
2023-02-20T22:45:20.459Z,3.55
2023-02-20T22:48:05.508Z,3.53
2023-02-20T22:50:50.842Z,3.40
2023-02-20T22:53:36.021Z,4.05
2023-02-20T22:56:22.863Z,3.55
2023-02-20T22:59:08.086Z,4.30
2023-02-20T23:01:53.531Z,4.05
2023-02-20T23:04:38.610Z,3.95
2023-02-20T23:07:23.640Z,4.03
2023-02-20T23:10:08.669Z,3.95
2023-02-20T23:12:55.435Z,4.47
2023-02-20T23:15:40.539Z,4.43
2023-02-20T23:18:25.780Z,4.10
2023-02-20T23:21:11.357Z,4.05
2023-02-20T23:23:56.824Z,4.00
2023-02-20T23:26:42.319Z,4.50
2023-02-20T23:29:28.800Z,4.03
2023-02-20T23:32:13.868Z,4.72
2023-02-20T23:34:59.240Z,4.57
2023-02-20T23:37:44.709Z,4.53
2023-02-20T23:40:36.414Z,4.68
2023-02-20T23:43:22.376Z,5.20
2023-02-20T23:46:09.794Z,5.32
2023-02-20T23:48:55.187Z,4.40
2023-02-20T23:51:40.229Z,4.90
2023-02-20T23:54:25.801Z,5.10
2023-02-20T23:57:12.420Z,4.72
2023-02-20T23:59:57.746Z,5.35
